Terminal Aerodrome Forecast
Issued by NWS

Home | Current Version | Previous Version | Text Only | Print | Product List | Glossary On
Versions: 1 2 3 4 5 6 7 8 9 10 11 12 13 14 15 16 17
000
FTUS45 KFGZ 232340
TAFPGA
TAF
KPGA 232340Z 2400/2424 23007G16KT 5SM -SHRA OVC050
     FM240600 26006KT 6SM BR OVC050
     FM242000 29008KT P6SM BKN100=

USA.gov is the U.S. government's official web portal to all federal, state and local government web resources and services.